Time;durP1;ratioP1;P1;durP2;ratioP2;P2;SDS_P1;SDS_P2;PMS_P1;PMS_P2;Temp;Humidity;BMP_temperature;BMP_pressure;BME280_temperature;BME280_humidity;BME280_pressure;Samples;Min_cycle;Max_cycle;Signal;HPM_P1;HPM_P2
2022/02/03 00:00:55;;;;;;;27.37;12.03;;;;;;;0.32;84.93;98633.55;1757263;79;21044;-79
2022/02/03 00:03:36;;;;;;;31.68;13.15;;;;;;;0.22;84.87;98631.77;1750571;77;22494;-75
2022/02/03 00:05:59;;;;;;;29.67;11.03;;;;;;;0.17;85.06;98632.58;1707900;79;21261;-75
2022/02/03 01:00:15;;;;;;;44.63;17.75;;;;;;;-0.52;86.55;98718.68;1712605;78;21028;-80
2022/02/03 01:02:46;;;;;;;43.33;17.23;;;;;;;-0.49;86.81;98716.18;1707973;80;21068;-80
2022/02/03 02:03:16;;;;;;;32.10;14.13;;;;;;;-0.23;85.46;98739.92;1779933;77;21055;-81
2022/02/03 02:06:02;;;;;;;34.70;13.15;;;;;;;-0.19;85.54;98746.78;1756474;77;21063;31
2022/02/03 02:09:09;;;;;;;32.30;13.60;;;;;;;-0.13;85.62;98752.39;1755947;78;21177;31
2022/02/03 02:43:44;;;;;;;38.65;14.18;;;;;;;0.05;86.37;98770.50;1782367;78;22477;31
2022/02/03 02:49:30;;;;;;;35.83;13.78;;;;;;;0.14;87.22;98789.78;1777443;77;21676;31
2022/02/03 03:35:41;;;;;;;35.65;13.90;;;;;;;0.73;86.29;98865.45;1703181;79;21111;31
2022/02/03 03:38:11;;;;;;;38.30;14.30;;;;;;;0.73;85.67;98869.28;1687947;81;21145;31
2022/02/03 03:40:47;;;;;;;32.13;13.80;;;;;;;0.69;86.77;98876.92;1644785;83;21219;31
2022/02/03 03:43:36;;;;;;;40.05;14.28;;;;;;;0.63;85.41;98878.13;1685410;83;21053;-84
2022/02/03 03:46:21;;;;;;;34.58;14.33;;;;;;;0.51;85.10;98878.85;1680179;81;21103;31
2022/02/03 03:54:51;;;;;;;34.95;15.15;;;;;;;0.44;84.74;98884.33;1744218;79;22588;-82
2022/02/03 05:10:50;;;;;;;38.88;14.85;;;;;;;0.41;85.34;99005.76;1692667;81;21193;31
2022/02/03 05:25:46;;;;;;;37.53;16.00;;;;;;;0.45;84.99;99018.17;1714850;82;21059;-86
2022/02/03 05:46:37;;;;;;;53.15;21.95;;;;;;;0.30;85.01;99051.64;1659753;84;21070;-84
2022/02/03 06:17:01;;;;;;;100.27;31.60;;;;;;;-0.31;85.35;99120.46;1770742;77;22398;-81
2022/02/03 06:22:11;;;;;;;77.90;27.00;;;;;;;-0.44;84.76;99142.76;1681207;83;21108;-87
2022/02/03 06:27:42;;;;;;;64.22;26.48;;;;;;;-0.51;85.64;99152.00;1712241;80;21175;-83
2022/02/03 06:30:11;;;;;;;73.07;25.00;;;;;;;-0.52;85.25;99168.56;1763936;80;21019;-82
2022/02/03 06:32:40;;;;;;;70.25;24.10;;;;;;;-0.56;85.55;99168.91;1763583;81;21020;-82
2022/02/03 06:35:10;;;;;;;79.55;27.25;;;;;;;-0.58;85.28;99169.30;1771887;79;21035;-83
2022/02/03 06:37:38;;;;;;;59.67;23.65;;;;;;;-0.62;85.03;99172.62;1785888;79;21201;-83
2022/02/03 07:04:58;;;;;;;59.27;21.37;;;;;;;0.04;86.62;99216.11;1733462;78;21147;-81
2022/02/03 07:07:45;;;;;;;71.37;28.20;;;;;;;0.21;85.94;99221.95;1716750;77;21161;31
2022/02/03 07:10:32;;;;;;;63.50;24.03;;;;;;;0.25;86.00;99225.86;1734444;78;21134;31
2022/02/03 07:13:02;;;;;;;55.03;22.70;;;;;;;0.36;86.12;99228.20;1704335;78;21064;-80
2022/02/03 07:21:32;;;;;;;61.65;21.30;;;;;;;0.68;85.38;99234.73;1729330;77;21527;-84
2022/02/03 07:23:59;;;;;;;50.67;21.02;;;;;;;0.71;85.26;99236.89;1745024;80;21083;-85
2022/02/03 07:26:25;;;;;;;54.58;20.90;;;;;;;0.72;84.91;99233.94;1769818;78;20960;-86
2022/02/03 07:28:52;;;;;;;43.05;18.27;;;;;;;0.70;85.04;99244.57;1753657;79;21030;-83
2022/02/03 07:31:19;;;;;;;56.65;17.82;;;;;;;0.71;85.12;99247.13;1739452;79;21104;-81
2022/02/03 07:37:05;;;;;;;47.67;17.05;;;;;;;0.75;84.99;99241.22;1727468;79;22310;31
2022/02/03 07:39:33;;;;;;;44.88;17.30;;;;;;;0.81;85.02;99244.30;1734213;79;21069;-84
2022/02/03 07:47:44;;;;;;;36.35;15.72;;;;;;;0.80;85.08;99250.28;1731260;80;21145;-87
2022/02/03 07:50:11;;;;;;;;;;;;;;;0.85;85.02;99258.88;1730831;80;20967;-85
2022/02/03 07:52:38;;;;;;;40.40;16.12;;;;;;;0.89;84.99;99261.08;1749857;79;20129;-84
2022/02/03 07:55:06;;;;;;;38.63;14.15;;;;;;;0.92;85.06;99257.30;1738790;79;21428;-84
2022/02/03 07:57:36;;;;;;;39.60;16.80;;;;;;;0.96;85.17;99257.36;1724674;78;21107;-84
2022/02/03 08:00:07;;;;;;;38.17;15.28;;;;;;;1.02;84.56;99264.72;1763817;80;21123;-89
2022/02/03 08:02:36;;;;;;;34.05;14.15;;;;;;;1.06;85.27;99260.08;1691439;82;21590;-83
2022/02/03 08:05:13;;;;;;;32.00;13.50;;;;;;;1.10;85.16;99261.85;1732068;79;21072;31
2022/02/03 08:07:56;;;;;;;31.82;12.33;;;;;;;1.13;85.38;99264.44;1705973;80;21128;-84
2022/02/03 08:10:42;;;;;;;35.60;11.18;;;;;;;1.19;85.23;99267.09;1733609;79;21089;-82
2022/02/03 08:18:34;;;;;;;26.62;11.20;;;;;;;1.34;85.43;99278.01;1808328;77;21010;-83
2022/02/03 08:21:05;;;;;;;30.17;12.40;;;;;;;1.40;85.30;99274.25;1790537;79;20938;-83
2022/02/03 08:26:25;;;;;;;29.07;12.43;;;;;;;1.41;84.98;99270.84;1755428;79;21107;-82
2022/02/03 08:28:55;;;;;;;28.35;12.47;;;;;;;1.43;85.00;99269.58;1749958;80;20999;-87
2022/02/03 08:31:10;;;;;;;24.02;10.80;;;;;;;1.44;84.68;99270.04;1748078;80;21002;-84
2022/02/03 08:33:35;;;;;;;29.10;11.50;;;;;;;1.42;84.63;99277.70;1736630;82;21095;-85
2022/02/03 08:36:06;;;;;;;27.22;10.48;;;;;;;1.43;84.63;99278.13;1750077;82;21184;-83
2022/02/03 08:41:05;;;;;;;28.70;10.10;;;;;;;1.62;84.69;99298.48;1738568;82;20965;-81
2022/02/03 08:43:34;;;;;;;23.90;9.65;;;;;;;1.76;84.71;99300.80;1749056;80;21000;-80
2022/02/03 08:46:07;;;;;;;29.48;10.93;;;;;;;1.94;84.41;99309.59;1737942;82;21073;-82
2022/02/03 08:48:35;;;;;;;23.27;10.50;;;;;;;2.11;84.43;99306.83;1751224;80;21070;-88
2022/02/03 08:51:06;;;;;;;24.05;9.28;;;;;;;2.27;84.02;99315.97;1750349;81;21059;-83
2022/02/03 08:53:41;;;;;;;20.10;9.78;;;;;;;2.40;83.20;99320.41;1740328;82;20996;-83
2022/02/03 09:30:06;;;;;;;18.75;7.33;;;;;;;3.82;73.64;99369.19;1667732;83;21250;-84
2022/02/03 09:33:18;;;;;;;15.43;7.72;;;;;;;3.93;73.58;99367.55;1687295;83;21265;31
2022/02/03 09:36:48;;;;;;;18.42;8.05;;;;;;;4.07;72.64;99365.06;1738067;80;21742;-87
2022/02/03 09:57:34;;;;;;;21.07;9.68;;;;;;;3.93;72.35;99384.27;1700957;82;21066;-85
2022/02/03 09:59:57;;;;;;;20.37;10.08;;;;;;;3.91;72.99;99375.69;1678376;81;21044;-89
2022/02/03 10:02:23;;;;;;;24.57;10.38;;;;;;;3.89;72.01;99373.53;1715402;79;21170;-90
2022/02/03 10:04:54;;;;;;;18.82;8.60;;;;;;;3.94;73.57;99367.57;1731349;78;21070;-90
2022/02/03 10:07:21;;;;;;;16.65;8.63;;;;;;;3.98;72.86;99375.73;1773336;78;21004;-85
2022/02/03 10:09:52;;;;;;;24.18;7.83;;;;;;;3.99;72.98;99374.02;1757705;78;21091;-88
2022/02/03 10:12:31;;;;;;;20.35;7.30;;;;;;;4.05;73.07;99382.20;1726404;80;21023;-85
2022/02/03 10:15:01;;;;;;;20.05;7.67;;;;;;;4.03;72.37;99368.04;1724905;80;21108;-85
2022/02/03 10:17:45;;;;;;;23.90;7.95;;;;;;;4.01;70.25;99372.31;1722213;79;21115;-85
2022/02/03 10:20:15;;;;;;;;;;;;;;;4.07;72.10;99374.92;1726176;79;21028;-84
2022/02/03 10:22:53;;;;;;;17.77;6.90;;;;;;;4.04;71.72;99379.19;1726646;79;20182;-89
2022/02/03 10:25:34;;;;;;;17.77;6.53;;;;;;;4.06;71.42;99380.94;1771223;78;21070;-84
2022/02/03 10:28:10;;;;;;;16.77;6.95;;;;;;;4.00;72.65;99379.62;1781227;79;21007;-84
2022/02/03 10:30:49;;;;;;;21.15;7.65;;;;;;;3.99;72.07;99381.73;1781664;79;20991;-85
2022/02/03 10:33:14;;;;;;;19.90;8.25;;;;;;;3.96;72.15;99383.87;1753769;80;21075;-85
2022/02/03 10:35:55;;;;;;;19.65;8.75;;;;;;;3.92;70.61;99382.54;1752598;79;21075;-89
2022/02/03 10:57:19;;;;;;;21.47;8.50;;;;;;;3.88;71.09;99396.23;1752637;78;21175;-88
2022/02/03 11:00:00;;;;;;;29.60;9.83;;;;;;;3.82;70.41;99393.63;1744523;77;21348;-85
2022/02/03 11:05:16;;;;;;;19.55;8.23;;;;;;;3.83;71.41;99412.08;1759377;79;21030;-85
2022/02/03 11:07:48;;;;;;;18.17;8.85;;;;;;;3.85;71.03;99407.37;1751804;81;21084;-83
2022/02/03 11:10:26;;;;;;;25.60;9.30;;;;;;;3.87;71.95;99403.09;1753346;80;21010;-85
2022/02/03 11:12:42;;;;;;;27.35;8.25;;;;;;;3.88;71.58;99412.95;1732969;82;21000;-83
2022/02/03 11:15:10;;;;;;;19.12;8.65;;;;;;;3.89;71.07;99414.69;1752535;78;20996;-89
2022/02/03 11:17:38;;;;;;;18.62;8.03;;;;;;;3.89;71.57;99418.12;1744711;80;21162;-88
2022/02/03 11:20:07;;;;;;;20.10;8.28;;;;;;;3.89;71.16;99417.27;1711766;80;21596;-88
2022/02/03 11:22:56;;;;;;;19.12;8.78;;;;;;;3.91;71.66;99418.98;1732497;79;21079;-84
2022/02/03 11:25:31;;;;;;;27.62;11.95;;;;;;;3.89;70.78;99415.55;1763063;79;21117;-84
2022/02/03 11:41:51;;;;;;;18.62;9.33;;;;;;;4.26;70.86;99402.03;1743106;80;21695;-91
2022/02/03 11:47:14;;;;;;;24.00;10.85;;;;;;;4.64;71.47;99398.80;1711648;80;21153;-89
2022/02/03 12:03:06;;;;;;;24.23;9.80;;;;;;;5.25;69.92;99389.94;1722017;80;21083;-88
2022/02/03 12:20:47;;;;;;;18.82;8.98;;;;;;;5.38;67.69;99387.77;1704897;81;21072;-84
2022/02/03 12:23:52;;;;;;;22.45;9.20;;;;;;;5.49;67.40;99384.34;1707594;79;20999;-83
2022/02/03 12:26:17;;;;;;;29.45;9.20;;;;;;;5.62;68.77;99386.06;1749156;78;21203;-89
2022/02/03 12:28:51;;;;;;;22.48;8.13;;;;;;;5.82;67.33;99384.75;1747302;79;21067;-83
2022/02/03 12:31:37;;;;;;;23.85;10.40;;;;;;;5.91;66.39;99383.91;1745221;82;21044;-83
2022/02/03 12:39:06;;;;;;;16.40;7.60;;;;;;;5.93;65.00;99389.92;1790373;78;21044;-85
2022/02/03 12:41:44;;;;;;;27.67;8.38;;;;;;;5.90;65.46;99389.91;1749119;78;21081;-84
2022/02/03 12:44:19;;;;;;;16.73;7.75;;;;;;;5.87;65.52;99394.66;1710104;79;21155;-85
2022/02/03 12:46:41;;;;;;;18.05;7.15;;;;;;;5.78;64.84;99398.08;1583070;89;21076;-90
2022/02/03 12:49:08;;;;;;;20.90;8.25;;;;;;;5.69;61.66;99398.52;1649879;85;22090;-90
2022/02/03 12:51:34;;;;;;;14.40;6.80;;;;;;;5.71;61.79;99400.66;1664829;84;21071;-90
2022/02/03 12:54:12;;;;;;;17.98;6.75;;;;;;;5.69;60.39;99404.56;1671982;84;21075;-89
2022/02/03 12:56:39;;;;;;;14.50;6.78;;;;;;;5.71;62.53;99397.67;1667850;82;21084;-85
2022/02/03 12:59:10;;;;;;;16.95;6.42;;;;;;;5.74;64.00;99400.23;1658256;80;21066;-89
2022/02/03 13:01:38;;;;;;;15.58;6.65;;;;;;;5.78;65.26;99407.11;1722579;81;21112;-90
2022/02/03 13:04:11;;;;;;;21.17;6.75;;;;;;;5.77;63.87;99406.70;1742075;79;21102;-90
2022/02/03 13:06:46;;;;;;;18.40;7.25;;;;;;;5.81;62.20;99404.09;1756759;77;21080;-88
2022/02/03 13:09:09;;;;;;;15.88;6.62;;;;;;;5.86;64.65;99408.84;1768240;78;21102;-90
2022/02/03 13:11:41;;;;;;;17.95;7.00;;;;;;;5.84;63.30;99402.38;1715888;79;21211;-89
2022/02/03 13:16:56;;;;;;;14.73;6.70;;;;;;;5.81;61.01;99403.70;1689921;82;21054;-84
2022/02/03 13:19:28;;;;;;;19.87;6.67;;;;;;;5.80;62.13;99401.11;1729933;80;21226;-89
2022/02/03 13:21:58;;;;;;;18.57;6.58;;;;;;;5.76;62.14;99411.41;1729339;81;21262;-84
2022/02/03 13:26:58;;;;;;;13.18;6.50;;;;;;;5.71;59.66;99423.47;1752841;79;21116;-85
2022/02/03 13:29:36;;;;;;;18.73;7.83;;;;;;;5.74;62.30;99426.47;1714375;80;20991;-85
2022/02/03 13:32:10;;;;;;;21.70;8.73;;;;;;;5.76;61.39;99418.30;1729305;79;21100;-90
2022/02/03 13:34:51;;;;;;;32.48;8.15;;;;;;;5.77;62.46;99415.73;1719988;81;21053;-88
2022/02/03 13:37:24;;;;;;;27.85;8.00;;;;;;;5.78;63.21;99417.43;1768900;79;21043;-83
2022/02/03 13:39:48;;;;;;;16.55;7.12;;;;;;;5.76;61.09;99417.87;1779795;77;21060;-85
2022/02/03 13:42:18;;;;;;;25.23;6.47;;;;;;;5.76;60.94;99421.73;1633946;86;21115;-90
2022/02/03 13:44:44;;;;;;;17.45;6.20;;;;;;;5.80;61.56;99426.47;1662600;85;21563;-90
2022/02/03 13:47:28;;;;;;;14.50;5.60;;;;;;;5.79;60.06;99426.06;1663761;85;21070;-88
2022/02/03 13:50:17;;;;;;;14.40;6.00;;;;;;;5.76;59.45;99429.91;1643368;84;21065;-85
2022/02/03 13:52:49;;;;;;;14.00;5.55;;;;;;;5.73;58.98;99430.78;1696404;80;21154;-87
2022/02/03 14:20:48;;;;;;;11.57;6.40;;;;;;;5.53;58.10;99454.39;1730481;82;21031;-84
2022/02/03 14:28:34;;;;;;;25.10;11.25;;;;;;;5.52;58.96;99461.72;1741125;80;21010;-83
2022/02/03 14:31:05;;;;;;;20.88;9.85;;;;;;;5.50;56.93;99463.44;1728937;80;21076;-84
2022/02/03 14:33:35;;;;;;;33.05;10.68;;;;;;;5.48;57.83;99459.55;1732893;82;21032;-83
2022/02/03 14:36:09;;;;;;;38.78;13.98;;;;;;;5.46;57.19;99457.84;1735686;81;21009;-84
2022/02/03 14:39:23;;;;;;;32.58;12.37;;;;;;;5.43;57.75;99453.55;1733315;82;21053;-83
2022/02/03 14:41:35;;;;;;;30.37;10.70;;;;;;;5.42;58.02;99454.83;1724581;82;21038;-84
2022/02/03 14:43:33;;;;;;;34.92;10.35;;;;;;;5.41;58.26;99456.52;1708117;82;21004;-86
2022/02/03 14:46:01;;;;;;;20.68;9.03;;;;;;;5.41;58.11;99460.83;1743673;81;20985;-83
2022/02/03 14:48:28;;;;;;;17.70;7.55;;;;;;;5.42;57.94;99462.56;1755898;80;20965;-85
2022/02/03 14:50:56;;;;;;;18.35;9.03;;;;;;;5.46;58.00;99464.30;1740876;80;21097;-83
2022/02/03 14:53:48;;;;;;;18.87;7.50;;;;;;;5.47;57.99;99466.00;1731913;81;21028;-84
2022/02/03 14:58:41;;;;;;;54.10;17.98;;;;;;;5.46;57.62;99468.16;1732212;82;21292;-84
2022/02/03 15:01:13;;;;;;;35.70;11.97;;;;;;;5.43;57.72;99470.72;1747427;80;21040;-84
2022/02/03 15:03:39;;;;;;;35.50;9.30;;;;;;;5.40;57.94;99479.75;1742256;81;21037;-85
2022/02/03 15:06:11;;;;;;;84.13;34.48;;;;;;;5.35;57.46;99474.56;1740473;80;21042;-84
2022/02/03 15:11:14;;;;;;;64.07;26.55;;;;;;;5.26;57.89;99476.70;1743005;82;21022;-83
2022/02/03 15:13:41;;;;;;;71.57;28.32;;;;;;;5.21;57.13;99480.98;1720569;81;21041;-84
2022/02/03 15:16:11;;;;;;;77.42;33.80;;;;;;;5.17;58.00;99473.69;1736369;80;21020;-84
2022/02/03 15:18:38;;;;;;;111.45;46.88;;;;;;;5.12;57.63;99480.97;1753022;78;21030;-84
2022/02/03 15:21:07;;;;;;;84.97;37.28;;;;;;;5.06;57.71;99486.11;1723026;80;21121;-89
2022/02/03 15:23:34;;;;;;;50.33;24.15;;;;;;;4.99;57.78;99487.78;1707657;82;21017;-87
2022/02/03 15:26:01;;;;;;;33.50;16.25;;;;;;;4.94;57.61;99494.22;1711826;80;21119;-91
2022/02/03 15:28:28;;;;;;;30.10;14.33;;;;;;;4.89;57.81;99495.90;1674919;84;21036;-90
2022/02/03 15:30:55;;;;;;;23.77;12.20;;;;;;;4.82;57.45;99500.61;1686149;83;21059;-84
2022/02/03 15:33:28;;;;;;;26.82;10.10;;;;;;;4.75;57.44;99494.98;1681736;84;21044;-84
2022/02/03 15:35:55;;;;;;;27.73;12.03;;;;;;;4.66;57.50;99487.23;1678252;83;21098;-84
2022/02/03 15:38:22;;;;;;;31.93;10.05;;;;;;;4.58;57.82;99490.61;1668267;83;21131;-89
2022/02/03 15:40:51;;;;;;;25.48;10.55;;;;;;;4.49;57.60;99492.27;1690457;84;21034;-85
2022/02/03 15:45:49;;;;;;;33.10;13.22;;;;;;;4.27;57.69;99497.71;1694093;84;21029;-84
2022/02/03 15:51:16;;;;;;;42.27;13.78;;;;;;;4.03;58.28;99512.12;1741645;80;21125;-90
2022/02/03 16:01:40;;;;;;;22.05;10.50;;;;;;;3.61;58.83;99529.33;1684658;79;21032;-85
2022/02/03 16:17:40;;;;;;;39.88;14.50;;;;;;;3.15;58.94;99543.81;1715662;80;21063;-90
2022/02/03 16:25:20;;;;;;;36.83;12.35;;;;;;;2.93;58.53;99544.83;1711238;82;21060;-88
2022/02/03 16:54:23;;;;;;;24.32;10.45;;;;;;;2.16;55.62;99590.31;1719547;80;21087;-88
2022/02/03 16:56:54;;;;;;;30.75;11.33;;;;;;;2.08;57.99;99595.73;1693242;83;21114;-88
2022/02/03 16:59:18;;;;;;;28.15;11.25;;;;;;;1.96;56.68;99595.11;1730486;78;21040;-89
2022/02/03 17:01:45;;;;;;;34.03;12.35;;;;;;;1.83;56.76;99606.86;1738981;80;21522;-86
2022/02/03 17:04:17;;;;;;;24.07;10.08;;;;;;;1.72;56.34;99607.92;1732280;80;21081;-88
2022/02/03 17:06:41;;;;;;;25.95;10.35;;;;;;;1.63;56.44;99605.60;1728323;80;21115;-86
2022/02/03 17:09:07;;;;;;;21.42;8.98;;;;;;;1.56;56.68;99605.48;1787605;80;21000;-87
2022/02/03 17:11:34;;;;;;;22.22;9.80;;;;;;;1.47;56.75;99607.86;1776768;78;21226;-85
2022/02/03 17:14:00;;;;;;;40.70;11.63;;;;;;;1.37;57.04;99598.27;1776961;79;21057;-87
2022/02/03 17:19:15;;;;;;;31.82;12.60;;;;;;;1.22;57.76;99610.78;1723705;79;21359;-82
2022/02/03 17:21:50;;;;;;;28.23;11.30;;;;;;;1.14;58.36;99622.14;1692962;79;21068;31
2022/02/03 17:24:17;;;;;;;42.78;12.93;;;;;;;1.06;57.68;99619.84;1687224;80;21559;-85
2022/02/03 17:30:01;;;;;;;38.92;15.35;;;;;;;0.89;58.11;99619.03;1728162;78;21135;31
2022/02/03 17:44:54;;;;;;;46.15;17.77;;;;;;;0.83;58.27;99618.05;1738642;79;21075;-81
2022/02/03 17:55:05;;;;;;;42.73;15.63;;;;;;;0.32;59.85;99646.25;1751101;78;21324;-81
2022/02/03 18:08:37;;;;;;;21.37;7.83;;;;;;;0.06;60.65;99650.71;1761114;77;21083;-80
2022/02/03 18:49:45;;;;;;;51.97;18.17;;;;;;;-0.71;63.01;99650.77;1699219;79;21118;31
2022/02/03 18:51:42;;;;;;;56.25;19.20;;;;;;;-0.75;63.28;99653.19;1725918;77;21189;31
2022/02/03 20:08:31;;;;;;;40.55;16.12;;;;;;;-1.71;67.17;99682.11;1697455;82;21151;31
2022/02/03 20:21:29;;;;;;;42.05;15.60;;;;;;;-2.16;67.58;99695.41;1673564;81;21115;31
2022/02/03 20:24:08;;;;;;;39.35;14.25;;;;;;;-2.26;67.68;99691.25;1667339;82;21147;31
2022/02/03 20:29:52;;;;;;;40.00;15.35;;;;;;;-2.36;68.57;99690.46;1663806;81;21152;31
2022/02/03 20:35:29;;;;;;;53.80;17.67;;;;;;;-2.43;68.47;99698.67;1637354;81;21189;31
2022/02/03 20:37:57;;;;;;;53.45;18.42;;;;;;;-2.49;69.38;99701.86;1644823;83;21478;31
2022/02/03 20:40:24;;;;;;;67.50;21.00;;;;;;;-2.51;68.74;99697.53;1684142;82;21108;-84
2022/02/03 20:42:51;;;;;;;56.18;19.05;;;;;;;-2.56;69.92;99696.52;1689439;85;21051;-84
2022/02/03 20:45:18;;;;;;;58.00;17.85;;;;;;;-2.62;69.37;99703.09;1700827;82;21076;-81
2022/02/03 20:47:45;;;;;;;50.45;17.55;;;;;;;-2.63;69.51;99708.12;1713425;81;21028;-82
2022/02/03 20:53:33;;;;;;;46.28;15.08;;;;;;;-2.64;69.63;99698.36;1756939;77;21122;31
2022/02/03 20:56:17;;;;;;;45.52;15.18;;;;;;;-2.64;70.20;99693.27;1735405;78;21082;31
2022/02/03 20:58:51;;;;;;;33.53;14.75;;;;;;;-2.66;70.05;99697.84;1747355;76;22510;31
2022/02/03 21:01:26;;;;;;;45.33;17.98;;;;;;;-2.69;70.46;99700.27;1721750;80;21057;-83
2022/02/03 21:04:09;;;;;;;52.93;17.77;;;;;;;-2.72;69.91;99698.48;1729272;80;21161;31
2022/02/03 21:09:42;;;;;;;43.85;16.07;;;;;;;-2.72;70.83;99697.20;1710511;78;21152;31
2022/02/03 21:12:16;;;;;;;52.15;16.97;;;;;;;-2.71;70.33;99695.11;1719946;79;21522;31
2022/02/03 21:14:45;;;;;;;42.78;15.35;;;;;;;-2.69;70.30;99695.17;1765047;76;21154;-81
2022/02/03 21:17:12;;;;;;;45.15;16.52;;;;;;;-2.68;70.54;99688.87;1774548;78;21383;-80
2022/02/03 21:19:51;;;;;;;36.53;14.60;;;;;;;-2.67;70.56;99686.77;1739818;78;21118;31
2022/02/03 21:22:25;;;;;;;56.02;16.07;;;;;;;-2.68;70.96;99688.87;1769239;77;22274;31
2022/02/03 21:25:14;;;;;;;35.55;14.10;;;;;;;-2.68;71.04;99686.33;1773862;76;21102;31
2022/02/03 21:27:35;;;;;;;39.48;14.70;;;;;;;-2.67;70.46;99682.09;1711708;79;21107;-83
2022/02/03 21:30:06;;;;;;;33.83;12.95;;;;;;;-2.69;70.65;99683.30;1712460;83;21107;-82
2022/02/03 21:32:31;;;;;;;42.08;14.25;;;;;;;-2.68;70.99;99688.87;1701990;78;21140;-82
2022/02/03 21:34:58;;;;;;;35.03;13.90;;;;;;;-2.69;71.23;99692.21;1687963;81;21141;-81
2022/02/03 21:37:27;;;;;;;31.12;13.65;;;;;;;-2.67;70.96;99688.45;1747375;82;21024;-82
2022/02/03 21:39:54;;;;;;;38.53;14.00;;;;;;;-2.67;71.66;99679.14;1736616;82;21128;-81
2022/02/03 21:42:22;;;;;;;43.40;13.80;;;;;;;-2.67;71.48;99684.64;1719191;82;21009;-83
2022/02/03 21:44:49;;;;;;;49.35;15.32;;;;;;;-2.66;71.47;99679.61;1734488;78;21611;-81
2022/02/03 21:47:26;;;;;;;;;;;;;;;;;;;;;
2022/02/03 21:49:59;;;;;;;50.10;15.32;;;;;;;-2.77;70.73;99679.61;1677445;82;21114;31
2022/02/03 21:52:52;;;;;;;52.50;16.32;;;;;;;-2.83;71.63;99679.38;1762944;76;21237;31
2022/02/03 21:55:25;;;;;;;34.45;12.85;;;;;;;-2.88;73.55;99682.17;1727671;79;21198;31
2022/02/03 21:58:00;;;;;;;33.70;10.60;;;;;;;-2.94;70.97;99681.94;1721898;79;21150;31
2022/02/03 22:00:30;;;;;;;25.95;9.20;;;;;;;-2.93;71.66;99682.39;1706752;78;21060;-80
2022/02/03 22:03:17;;;;;;;21.62;9.93;;;;;;;-2.94;73.17;99681.94;1726448;79;21112;31
2022/02/03 22:05:53;;;;;;;24.75;10.18;;;;;;;-2.91;72.89;99687.13;1710176;76;21090;31
2022/02/03 22:08:31;;;;;;;25.00;9.90;;;;;;;-2.94;74.85;99689.16;1739485;77;21099;31
2022/02/03 22:11:04;;;;;;;20.27;9.28;;;;;;;-2.93;73.60;99688.34;1753367;78;21085;31
2022/02/03 22:13:36;;;;;;;19.98;9.33;;;;;;;-2.91;74.53;99685.45;1715649;78;21187;-81
2022/02/03 22:16:21;;;;;;;21.65;9.80;;;;;;;-2.86;74.39;99690.73;1675490;80;21257;31
2022/02/03 22:19:04;;;;;;;26.73;11.40;;;;;;;-2.88;73.15;99688.13;1756661;77;22752;31
2022/02/03 22:50:19;;;;;;;24.55;9.43;;;;;;;-2.96;74.04;99684.42;1761358;78;21114;-85
2022/02/03 22:55:52;;;;;;;31.23;10.25;;;;;;;-3.04;74.36;99693.02;1723291;78;21155;31
2022/02/03 23:00:58;;;;;;;36.30;10.68;;;;;;;-3.07;74.19;99685.26;1763343;78;21154;31
2022/02/03 23:14:39;;;;;;;29.87;11.43;;;;;;;-3.17;75.08;99681.04;1742269;81;21095;-84
2022/02/03 23:22:31;;;;;;;30.70;12.18;;;;;;;-3.21;74.92;99678.36;1740829;78;21171;31
2022/02/03 23:25:13;;;;;;;32.30;12.25;;;;;;;-3.19;74.35;99677.16;1707787;79;21657;31
2022/02/03 23:28:09;;;;;;;32.13;12.15;;;;;;;-3.22;74.81;99674.52;1700858;80;22961;31
2022/02/03 23:30:34;;;;;;;30.37;13.05;;;;;;;-3.24;74.90;99672.31;1739753;78;21127;31
2022/02/03 23:33:09;;;;;;;37.78;12.98;;;;;;;-3.29;74.74;99673.38;1712903;78;21099;31
2022/02/03 23:35:44;;;;;;;36.00;12.27;;;;;;;-3.34;74.35;99673.63;1702565;79;21040;31
2022/02/03 23:52:21;;;;;;;30.90;10.68;;;;;;;-3.40;76.17;99665.34;1726295;79;21060;31
